Browns Mills, NJ

8:34 AM EDT on May 05, 2015 (GMT -0400)
Browns Mills | | Change Station
CLOSE
Current Station
Personal Weather Station
Location: Pemberton Township, NJ
Elevation: 92 ft
Nearby Weather Stations

Elev 92 ft 39.97 °N, 74.56 °W | Updated 13 minutes ago

Clear
Clear
68.1 °F
Feels Like 68.1 °F
N
0.0
Wind Variable Wind from SW
Gusts 4.0 mph

Today
High -- | Low -- °F
--% Chance of Precip.
Yesterday
High -- | Low -- °F
Precip. -- in
5:53 AM 7:56 PM
Full, 98% visible
Pressure 30.19 in
Visibility 10.0 miles
Clouds Clear
Dew Point 56 °F
Humidity 65%
Rainfall 0.00 in
Snow Depth Not available.
UV 2 out of 12
Pollen 9.70 out of 12
Air Quality Not available.
Flu Activity Local Activity
METAR KWRI 051158Z AUTO 26008KT 10SM CLR 19/12 A3019 RMK AO2 SLP222 T01910120 10191 20152 52015

More Conditions Fewer Conditions

Pressure 30.19 in
Visibility 10.0 miles
Clouds Clear
Dew Point 56 °F
Humidity 65%
Rainfall 0.00 in
Snow Depth Not available.
UV 2 out of 12
Pollen 9.70 out of 12
Air Quality Not available.
Flu Activity Local Activity
METAR KWRI 051158Z AUTO 26008KT 10SM CLR 19/12 A3019 RMK AO2 SLP222 T01910120 10191 20152 52015

More Conditions Fewer Conditions

Nepal has a long way to go to dig out and rebuild from a devastating earthquake. We have teamed up with several charities and organizations to make contributing to the relief effort as easy as possible.
How you can help: Portlight Strategies | Red Cross

10-Day Weather Forecast

Almanac

Astronomy

May. 05, 2015 Rise Set
Actual Time
Civil Twilight
Nautical Twilight
Astronomical Twilight
Moon
Length of Visible Light
Length of Day
Tomorrow will be .
, % of the Moon is Illuminated

Today's Extremes

State Highs State Lows

Community

WunderPhotos

Upload Photos

1,818,874 photos uploaded!

WunderBlogs® & News

Nearby

Air Quality

  Air Quality AQ Index Pollutant
Not available.

Snow Depth

Station Depth Elevation

Earthquake Activity

City Distance Mag. Time & Date
Minimum magnitude displayed is 2.5.

Coastal Water Temperatures

Place Temperature

Stations

Nearby Weather Stations

Station Location Temp. Windchill Dew Point Humidity Wind Precip. Elev Updated Type